Houston, Texas
Current Conditions -  °F | °C
As of 12:15 PM on Friday 19 Dec 2014 (Local Time) from KMCJ Reporting Station
Overcast Overcast  
Wind Chill: 54°   Ceiling: 500
Heat Index: 54°   Visibility: NA
Dew Point: 52°   Wind: 17mph
Humidity: 94%   Direction: 350°N
Pressure: 30.02"   Gusts: 24mph
Location:  29.76°N, 95.37°W
Report Text: KMCJ 191815Z AUTO 35015G21KT BKN005 OVC008 12/11 A3002 RMK AO1
Loading
Personal Weather Stations






























Interactive Weather Map New forecast layout! Learn more

10-Day Weather Forecast

Advertisements
Track Severe Weather on mobile